createdAt,value
2019-06-26T00:00:18.560Z,58.80
2019-06-26T00:02:49.112Z,59.00
2019-06-26T00:05:20.872Z,59.10
2019-06-26T00:07:51.255Z,59.30
2019-06-26T00:10:21.623Z,59.20
2019-06-26T00:12:53.455Z,59.20
2019-06-26T00:15:23.800Z,59.20
2019-06-26T00:17:54.300Z,59.30
2019-06-26T00:20:24.637Z,59.30
2019-06-26T00:22:56.755Z,59.30
2019-06-26T00:25:27.049Z,59.10
2019-06-26T00:27:57.354Z,59.50
2019-06-26T00:30:27.893Z,59.50
2019-06-26T00:32:58.793Z,59.60
2019-06-26T00:35:29.320Z,59.60
2019-06-26T00:37:59.850Z,59.70
2019-06-26T00:40:50.629Z,59.80
2019-06-26T00:43:20.917Z,59.80
2019-06-26T00:45:51.039Z,60.00
2019-06-26T00:48:21.264Z,59.80
2019-06-26T00:50:51.387Z,60.00
2019-06-26T00:53:23.316Z,60.00
2019-06-26T00:55:55.222Z,60.00
2019-06-26T00:58:25.340Z,59.90
2019-06-26T01:00:55.883Z,59.80
2019-06-26T01:03:26.101Z,59.90
2019-06-26T01:05:56.331Z,59.80
2019-06-26T01:08:26.448Z,59.80
2019-06-26T01:10:56.672Z,60.10
2019-06-26T01:13:28.634Z,59.90
2019-06-26T01:15:58.759Z,60.10
2019-06-26T01:18:28.984Z,60.20
2019-06-26T01:20:59.111Z,60.40
2019-06-26T01:23:29.336Z,60.20
2019-06-26T01:25:59.559Z,60.50
2019-06-26T01:28:29.785Z,60.20
2019-06-26T01:31:00.010Z,60.30
2019-06-26T01:33:30.132Z,60.90
2019-06-26T01:36:00.255Z,61.00
2019-06-26T01:38:30.480Z,61.20
2019-06-26T01:41:01.121Z,61.20
2019-06-26T01:43:33.899Z,61.80
2019-06-26T01:46:05.568Z,61.80
2019-06-26T01:48:35.684Z,62.00
2019-06-26T01:51:05.909Z,62.20
2019-06-26T01:53:37.673Z,62.30
2019-06-26T01:56:10.963Z,62.90
2019-06-26T01:58:42.621Z,63.10
2019-06-26T02:01:12.953Z,63.30
2019-06-26T02:03:43.083Z,63.10
2019-06-26T02:06:15.446Z,63.30
2019-06-26T02:08:45.569Z,62.80
2019-06-26T02:11:15.794Z,62.60
2019-06-26T02:13:45.918Z,63.00
2019-06-26T02:16:16.145Z,63.20
2019-06-26T02:18:49.643Z,63.20
2019-06-26T02:21:23.451Z,63.20
2019-06-26T02:23:53.675Z,62.70
2019-06-26T02:26:26.258Z,62.80
2019-06-26T02:29:00.679Z,62.90
2019-06-26T02:31:30.798Z,63.40
2019-06-26T02:34:02.935Z,63.20
2019-06-26T02:36:34.831Z,63.20
2019-06-26T02:39:08.032Z,64.10
2019-06-26T02:41:40.194Z,63.30
2019-06-26T02:44:13.081Z,63.00
2019-06-26T02:46:43.204Z,62.90
2019-06-26T02:49:13.430Z,63.40
2019-06-26T02:51:45.395Z,63.70
2019-06-26T02:54:15.528Z,63.50
2019-06-26T02:56:45.846Z,63.70
2019-06-26T02:59:15.992Z,63.50
2019-06-26T03:01:47.731Z,63.80
2019-06-26T03:04:18.263Z,63.70
2019-06-26T03:06:48.487Z,64.30
2019-06-26T03:09:18.610Z,64.70
2019-06-26T03:11:48.735Z,64.70
2019-06-26T03:14:18.857Z,64.40
2019-06-26T03:16:48.980Z,64.70
2019-06-26T03:19:23.415Z,64.90
2019-06-26T03:21:55.277Z,65.10
2019-06-26T03:24:25.490Z,65.10
2019-06-26T03:26:58.681Z,65.10
2019-06-26T03:29:27.993Z,65.00
2019-06-26T03:31:57.907Z,65.20
2019-06-26T03:34:28.276Z,65.30
2019-06-26T03:36:58.568Z,65.00
2019-06-26T03:39:28.686Z,65.20
2019-06-26T03:41:59.335Z,65.00
2019-06-26T03:44:29.671Z,65.00
2019-06-26T03:47:01.427Z,65.30
2019-06-26T03:49:33.082Z,64.60
2019-06-26T03:52:03.291Z,64.60
2019-06-26T03:54:34.947Z,64.80
2019-06-26T03:57:06.708Z,64.50
2019-06-26T03:59:36.935Z,64.00
2019-06-26T04:02:07.262Z,63.90
2019-06-26T04:04:39.033Z,64.00
2019-06-26T04:07:23.512Z,63.80
2019-06-26T04:09:49.720Z,63.60
2019-06-26T04:12:19.830Z,63.40
2019-06-26T04:14:50.056Z,63.70
2019-06-26T04:17:20.187Z,63.60
2019-06-26T04:19:50.301Z,63.80
2019-06-26T04:22:20.428Z,63.90
2019-06-26T04:24:50.854Z,63.90
2019-06-26T04:27:20.980Z,64.10
2019-06-26T04:29:50.999Z,63.50
2019-06-26T04:32:21.081Z,64.10
2019-06-26T04:34:54.413Z,64.30
2019-06-26T04:37:23.334Z,63.90
2019-06-26T04:39:53.375Z,64.20
2019-06-26T04:42:23.474Z,63.80
2019-06-26T04:44:53.523Z,63.00
2019-06-26T04:47:25.301Z,63.60
2019-06-26T04:49:57.037Z,63.60
2019-06-26T04:52:28.990Z,63.40
2019-06-26T04:54:59.047Z,63.70
2019-06-26T04:57:29.091Z,63.30
2019-06-26T04:59:59.214Z,63.70
2019-06-26T05:02:29.250Z,63.60
2019-06-26T05:04:59.306Z,64.30
2019-06-26T05:07:29.410Z,63.80
2019-06-26T05:09:59.620Z,64.80
2019-06-26T05:12:29.646Z,64.50
2019-06-26T05:14:59.867Z,64.30
2019-06-26T05:17:29.917Z,64.80
2019-06-26T05:20:00.042Z,64.30
2019-06-26T05:22:30.369Z,63.30
2019-06-26T05:25:00.542Z,63.40
2019-06-26T05:27:32.298Z,62.40
2019-06-26T05:30:02.349Z,61.60
2019-06-26T05:32:32.499Z,61.30
2019-06-26T05:35:04.989Z,61.60
2019-06-26T05:37:35.171Z,61.80
2019-06-26T05:40:10.730Z,61.30
2019-06-26T05:42:41.095Z,60.90
2019-06-26T05:45:12.359Z,61.40
2019-06-26T05:47:42.529Z,61.20
2019-06-26T05:50:14.799Z,61.40
2019-06-26T05:52:44.805Z,61.10
2019-06-26T05:55:16.688Z,61.30
2019-06-26T05:57:48.567Z,60.80
2019-06-26T06:00:20.769Z,61.50
2019-06-26T06:02:54.021Z,61.40
2019-06-26T06:05:23.614Z,61.30
2019-06-26T06:07:53.828Z,60.90
2019-06-26T06:10:24.175Z,61.20
2019-06-26T06:12:54.338Z,59.50
2019-06-26T06:15:24.522Z,59.80
2019-06-26T06:17:54.742Z,59.20
2019-06-26T06:20:27.858Z,59.00
2019-06-26T06:22:57.142Z,58.60
2019-06-26T06:25:32.858Z,59.50
2019-06-26T06:28:06.161Z,58.90
2019-06-26T06:30:37.810Z,58.90
2019-06-26T06:33:07.920Z,59.10
2019-06-26T06:35:38.331Z,58.90
2019-06-26T06:40:57.421Z,59.30
2019-06-26T06:43:27.476Z,58.90
2019-06-26T06:45:57.853Z,58.90
2019-06-26T06:48:27.984Z,58.30
2019-06-26T06:50:58.159Z,58.40
2019-06-26T06:53:29.411Z,57.90
2019-06-26T06:55:59.467Z,58.20
2019-06-26T06:58:30.426Z,57.90
2019-06-26T07:01:03.478Z,58.60
2019-06-26T07:03:35.282Z,58.20
2019-06-26T07:06:05.448Z,58.40
2019-06-26T07:08:51.533Z,57.90
2019-06-26T07:11:22.014Z,58.00
2019-06-26T07:13:52.846Z,57.10
2019-06-26T07:16:24.706Z,56.90
2019-06-26T07:18:55.135Z,56.80
2019-06-26T07:21:25.560Z,56.60
2019-06-26T07:23:55.993Z,56.70
2019-06-26T07:26:26.415Z,56.20
2019-06-26T07:28:56.854Z,56.40
2019-06-26T07:31:27.268Z,55.90
2019-06-26T07:33:57.699Z,56.70
2019-06-26T07:36:28.121Z,56.40
2019-06-26T07:38:59.164Z,56.60
2019-06-26T07:41:29.694Z,57.40
2019-06-26T07:44:00.227Z,57.20
2019-06-26T07:46:33.418Z,57.20
2019-06-26T07:49:03.943Z,56.60
2019-06-26T07:51:35.602Z,56.60
2019-06-26T07:54:10.432Z,56.10
2019-06-26T07:56:40.856Z,56.50
2019-06-26T07:59:11.327Z,56.60
2019-06-26T08:01:41.840Z,56.00
2019-06-26T08:04:12.445Z,55.60
2019-06-26T08:06:42.876Z,54.50
2019-06-26T08:09:13.402Z,55.00
2019-06-26T08:11:43.949Z,55.20
2019-06-26T08:14:15.873Z,55.30
2019-06-26T08:16:47.548Z,55.70
2019-06-26T08:19:17.980Z,54.50
2019-06-26T08:21:48.405Z,54.80
2019-06-26T08:24:18.936Z,54.20
2019-06-26T08:26:49.461Z,53.90
2019-06-26T08:29:19.887Z,53.60
2019-06-26T08:31:50.321Z,52.80
2019-06-26T08:34:20.754Z,53.80
2019-06-26T08:36:51.169Z,54.90
2019-06-26T08:39:21.596Z,54.60
2019-06-26T08:41:52.539Z,54.00
2019-06-26T08:44:22.961Z,53.80
2019-06-26T08:46:53.492Z,53.30
2019-06-26T08:49:26.008Z,52.30
2019-06-26T08:51:57.471Z,52.50
2019-06-26T08:54:28.050Z,52.70
2019-06-26T08:57:07.081Z,53.20
2019-06-26T08:59:37.502Z,52.90
2019-06-26T09:02:08.352Z,52.90
2019-06-26T09:04:39.894Z,52.60
2019-06-26T09:07:10.574Z,52.50
2019-06-26T09:09:41.258Z,52.20
2019-06-26T09:12:11.688Z,50.90
2019-06-26T09:14:42.119Z,51.10
2019-06-26T09:17:16.944Z,50.70
2019-06-26T09:19:48.294Z,50.10
2019-06-26T09:22:20.520Z,50.10
2019-06-26T09:24:51.091Z,49.90
2019-06-26T09:27:21.621Z,50.60
2019-06-26T09:29:52.050Z,49.80
2019-06-26T09:32:22.473Z,50.00
2019-06-26T09:34:53.923Z,50.10
2019-06-26T09:37:25.886Z,50.10
2019-06-26T09:39:56.324Z,50.00
2019-06-26T09:42:28.071Z,50.80
2019-06-26T09:44:58.601Z,50.20
2019-06-26T09:47:31.022Z,50.00
2019-06-26T09:50:20.970Z,49.90
2019-06-26T09:52:51.597Z,49.60
2019-06-26T09:55:22.136Z,49.50
2019-06-26T09:57:52.650Z,49.20
2019-06-26T10:00:23.972Z,49.50
2019-06-26T10:02:54.423Z,49.30
2019-06-26T10:05:24.954Z,49.60
2019-06-26T10:07:55.484Z,49.00
2019-06-26T10:10:26.016Z,49.20
2019-06-26T10:12:58.795Z,48.90
2019-06-26T10:15:32.521Z,49.50
2019-06-26T10:18:02.923Z,48.50
2019-06-26T10:20:34.990Z,48.10
2019-06-26T10:23:05.519Z,48.30
2019-06-26T10:25:36.047Z,47.10
2019-06-26T10:28:06.578Z,46.80
2019-06-26T10:30:56.059Z,47.00
2019-06-26T10:33:26.989Z,47.00
2019-06-26T10:35:59.055Z,47.20
2019-06-26T10:38:31.023Z,46.90
2019-06-26T10:41:01.855Z,46.70
2019-06-26T10:43:34.021Z,46.80
2019-06-26T10:46:06.037Z,46.70
2019-06-26T10:48:37.951Z,46.80
2019-06-26T10:51:08.580Z,46.50
2019-06-26T10:53:39.107Z,46.30
2019-06-26T10:56:11.071Z,45.80
2019-06-26T10:58:41.602Z,45.30
2019-06-26T11:01:21.243Z,44.70
2019-06-26T11:03:51.669Z,44.90
2019-06-26T11:06:22.209Z,45.10
2019-06-26T11:08:52.627Z,45.20
2019-06-26T11:11:27.866Z,44.90
2019-06-26T11:13:58.396Z,44.70
2019-06-26T11:16:33.143Z,45.20
2019-06-26T11:19:03.654Z,45.30
2019-06-26T11:21:34.082Z,44.40
2019-06-26T11:24:06.056Z,44.10
2019-06-26T11:26:36.571Z,44.30
2019-06-26T11:29:07.001Z,44.60
2019-06-26T11:31:56.900Z,44.40
2019-06-26T11:34:27.521Z,44.50
2019-06-26T11:37:03.789Z,44.30
2019-06-26T11:39:30.108Z,44.00
2019-06-26T11:42:00.447Z,44.30
2019-06-26T11:44:32.518Z,43.70
2019-06-26T11:47:05.851Z,43.40
2019-06-26T11:49:36.319Z,43.80
2019-06-26T11:52:06.750Z,43.40
2019-06-26T11:54:37.175Z,43.10
2019-06-26T11:57:07.600Z,43.10
2019-06-26T11:59:39.188Z,43.50
2019-06-26T12:02:09.686Z,43.30
2019-06-26T12:04:40.767Z,43.50
2019-06-26T12:07:11.260Z,42.90
2019-06-26T12:09:43.263Z,42.60
2019-06-26T12:12:16.001Z,42.80
2019-06-26T12:14:46.527Z,42.40
2019-06-26T12:17:19.311Z,41.90
2019-06-26T12:19:49.024Z,42.10
2019-06-26T12:22:20.736Z,42.20
2019-06-26T12:24:51.105Z,42.80
2019-06-26T12:27:21.532Z,42.60
2019-06-26T12:29:51.959Z,42.70
2019-06-26T12:32:22.548Z,42.10
2019-06-26T12:34:53.038Z,42.20
2019-06-26T12:37:36.567Z,42.20
2019-06-26T12:39:55.409Z,42.20
2019-06-26T12:42:25.836Z,42.50
2019-06-26T12:44:56.375Z,42.00
2019-06-26T12:47:26.796Z,42.10
2019-06-26T12:49:57.324Z,41.40
2019-06-26T12:52:34.206Z,41.80
2019-06-26T12:55:06.470Z,40.90
2019-06-26T12:57:36.897Z,41.00
2019-06-26T13:00:10.192Z,40.60
2019-06-26T13:02:40.728Z,41.00
2019-06-26T13:05:11.268Z,41.30
2019-06-26T13:07:41.878Z,40.60
2019-06-26T13:10:13.096Z,40.80
2019-06-26T13:12:45.880Z,41.00
2019-06-26T13:15:15.926Z,40.60
2019-06-26T13:17:49.114Z,40.50
2019-06-26T13:20:19.951Z,40.40
2019-06-26T13:22:50.424Z,40.10
2019-06-26T13:25:20.909Z,40.00
2019-06-26T13:27:51.340Z,40.00
2019-06-26T13:30:24.735Z,40.00
2019-06-26T13:32:55.157Z,39.50
2019-06-26T13:35:25.482Z,39.60
2019-06-26T13:37:56.319Z,39.90
2019-06-26T13:40:26.745Z,39.40
2019-06-26T13:42:57.275Z,39.70
2019-06-26T13:45:28.727Z,40.00
2019-06-26T13:48:07.860Z,40.10
2019-06-26T13:50:38.695Z,40.60
2019-06-26T13:53:09.119Z,40.90
2019-06-26T13:55:39.853Z,41.00
2019-06-26T13:58:10.382Z,40.50
2019-06-26T14:00:40.918Z,41.00
2019-06-26T14:03:11.855Z,40.90
2019-06-26T14:05:59.482Z,41.00
2019-06-26T14:08:32.788Z,40.90
2019-06-26T14:11:01.979Z,41.30
2019-06-26T14:13:33.016Z,41.30
2019-06-26T14:16:03.546Z,41.20
2019-06-26T14:18:33.867Z,41.00
2019-06-26T14:21:05.938Z,41.10
2019-06-26T14:23:37.988Z,41.10
2019-06-26T14:26:08.326Z,41.50
2019-06-26T14:28:38.785Z,41.50
2019-06-26T14:31:11.227Z,41.10
2019-06-26T14:33:41.666Z,41.20
2019-06-26T14:36:13.614Z,41.50
2019-06-26T14:38:53.257Z,41.20
2019-06-26T14:41:23.683Z,41.40
2019-06-26T14:43:54.111Z,41.40
2019-06-26T14:46:27.304Z,41.70
2019-06-26T14:48:57.740Z,41.50
2019-06-26T14:51:41.137Z,41.30
2019-06-26T14:54:00.227Z,41.60
2019-06-26T14:56:30.648Z,41.10
2019-06-26T14:59:01.414Z,41.40
2019-06-26T15:01:33.550Z,41.30
2019-06-26T15:04:05.512Z,41.10
2019-06-26T15:06:35.944Z,41.50
2019-06-26T15:09:07.357Z,41.40
2019-06-26T15:11:43.668Z,41.50
2019-06-26T15:14:14.183Z,41.60
2019-06-26T15:16:44.714Z,41.40
2019-06-26T15:19:15.652Z,41.40
2019-06-26T15:21:57.956Z,41.60
2019-06-26T15:24:18.659Z,41.70
2019-06-26T15:26:49.190Z,41.50
2019-06-26T15:29:19.716Z,41.30
2019-06-26T15:31:50.145Z,41.40
2019-06-26T15:34:20.775Z,41.50
2019-06-26T15:36:51.198Z,41.70
2019-06-26T15:39:21.728Z,41.10
2019-06-26T15:41:52.155Z,41.60
2019-06-26T15:44:22.580Z,41.70
2019-06-26T15:46:55.978Z,41.50
2019-06-26T15:49:26.610Z,41.60
2019-06-26T15:51:57.112Z,41.60
2019-06-26T15:54:29.407Z,41.60
2019-06-26T15:57:00.354Z,41.90
2019-06-26T15:59:31.215Z,41.90
2019-06-26T16:02:01.919Z,42.00
2019-06-26T16:04:35.346Z,42.00
2019-06-26T16:07:05.952Z,42.10
2019-06-26T16:09:36.783Z,42.30
2019-06-26T16:12:08.748Z,42.50
2019-06-26T16:14:42.147Z,42.40
2019-06-26T16:17:54.452Z,42.10
2019-06-26T16:23:19.983Z,42.20
2019-06-26T16:26:03.634Z,42.40
2019-06-26T16:28:34.183Z,42.40
2019-06-26T16:31:11.744Z,42.20
2019-06-26T16:33:42.275Z,43.00
2019-06-26T16:36:12.907Z,42.30
2019-06-26T16:38:48.650Z,42.40
2019-06-26T16:41:25.639Z,42.20
2019-06-26T16:43:56.578Z,42.40
2019-06-26T16:46:28.704Z,42.40
2019-06-26T16:48:59.172Z,42.40
2019-06-26T16:54:21.837Z,42.50
2019-06-26T16:56:52.264Z,42.60
2019-06-26T16:59:25.766Z,43.10
2019-06-26T17:02:06.958Z,42.40
2019-06-26T17:04:38.704Z,42.50
2019-06-26T17:07:09.167Z,42.50
2019-06-26T17:09:44.219Z,42.60
2019-06-26T17:12:13.155Z,42.70
2019-06-26T17:14:43.585Z,43.00
2019-06-26T17:17:14.015Z,42.90
2019-06-26T17:19:44.640Z,43.00
2019-06-26T17:22:16.604Z,43.10
2019-06-26T17:24:47.032Z,43.00
2019-06-26T17:27:17.456Z,43.10
2019-06-26T17:29:47.900Z,42.90
2019-06-26T17:32:18.519Z,43.10
2019-06-26T17:34:52.672Z,43.00
2019-06-26T17:37:26.229Z,43.00
2019-06-26T17:40:05.896Z,42.90
2019-06-26T17:42:36.607Z,42.90
2019-06-26T17:45:20.447Z,43.10
2019-06-26T17:47:50.977Z,43.20
2019-06-26T17:50:21.710Z,43.40
2019-06-26T17:52:52.241Z,43.30
2019-06-26T17:55:25.343Z,43.50
2019-06-26T17:57:55.860Z,43.10
2019-06-26T18:00:29.258Z,43.20
2019-06-26T18:02:59.786Z,43.30
2019-06-26T18:05:30.520Z,43.30
2019-06-26T18:08:00.945Z,43.40
2019-06-26T18:10:31.577Z,43.40
2019-06-26T18:13:02.108Z,43.80
2019-06-26T18:15:33.354Z,43.70
2019-06-26T18:18:04.907Z,43.90
2019-06-26T18:20:37.586Z,44.10
2019-06-26T18:23:08.245Z,44.10
2019-06-26T18:26:08.433Z,44.30
2019-06-26T18:28:25.253Z,44.60
2019-06-26T18:30:56.087Z,44.50
2019-06-26T18:33:26.514Z,44.70
2019-06-26T18:35:59.807Z,44.80
2019-06-26T18:38:30.233Z,44.60
2019-06-26T18:41:01.480Z,45.00
2019-06-26T18:43:33.442Z,45.20
2019-06-26T18:46:03.971Z,45.60
2019-06-26T18:48:35.431Z,45.70
2019-06-26T18:51:05.856Z,46.20
2019-06-26T18:53:36.275Z,46.40
2019-06-26T18:56:06.702Z,46.50
2019-06-26T18:58:39.282Z,46.80
2019-06-26T19:01:09.815Z,47.10
2019-06-26T19:03:40.237Z,47.50
2019-06-26T19:06:10.765Z,47.40
2019-06-26T19:08:41.409Z,47.50
2019-06-26T19:11:11.926Z,48.20
2019-06-26T19:13:42.352Z,48.50
2019-06-26T19:16:14.435Z,49.20
2019-06-26T19:18:46.075Z,49.00
2019-06-26T19:21:16.604Z,49.80
2019-06-26T19:23:47.132Z,50.30
2019-06-26T19:26:17.561Z,50.50
2019-06-26T19:28:49.624Z,50.30
2019-06-26T19:31:40.736Z,50.10
2019-06-26T19:34:11.265Z,50.40
2019-06-26T19:36:50.050Z,50.30
2019-06-26T19:39:19.770Z,49.70
2019-06-26T19:41:48.835Z,50.20
2019-06-26T19:44:21.359Z,49.60
2019-06-26T19:46:51.591Z,49.60
2019-06-26T19:49:23.563Z,49.90
2019-06-26T19:51:54.510Z,49.90
2019-06-26T19:54:27.677Z,50.10
2019-06-26T19:56:57.429Z,50.50
2019-06-26T19:59:28.027Z,50.80
2019-06-26T20:01:58.966Z,51.00
2019-06-26T20:04:29.908Z,50.70
2019-06-26T20:07:00.742Z,51.60
2019-06-26T20:09:32.703Z,51.50
2019-06-26T20:12:03.130Z,51.30
2019-06-26T20:14:33.762Z,51.60
2019-06-26T20:17:06.851Z,52.10
2019-06-26T20:19:37.278Z,52.10
2019-06-26T20:22:07.931Z,52.20
2019-06-26T20:24:44.191Z,52.30
2019-06-26T20:27:10.505Z,52.50
2019-06-26T20:29:41.545Z,52.40
2019-06-26T20:32:11.972Z,52.70
2019-06-26T20:34:42.503Z,52.90
2019-06-26T20:37:14.464Z,53.60
2019-06-26T20:39:44.891Z,53.70
2019-06-26T20:42:15.727Z,53.50
2019-06-26T20:44:46.154Z,53.80
2019-06-26T20:47:17.098Z,53.70
2019-06-26T20:49:53.249Z,54.10
2019-06-26T20:52:19.585Z,54.00
2019-06-26T20:55:00.544Z,53.80
2019-06-26T20:57:22.589Z,53.80
2019-06-26T20:59:53.016Z,54.10
2019-06-26T21:02:23.444Z,54.00
2019-06-26T21:04:53.871Z,53.90
2019-06-26T21:07:25.832Z,54.50
2019-06-26T21:09:56.262Z,54.70
2019-06-26T21:12:27.200Z,55.20
2019-06-26T21:14:57.733Z,55.20
2019-06-26T21:17:28.161Z,55.20
2019-06-26T21:19:58.789Z,55.30
2019-06-26T21:22:29.226Z,55.60
2019-06-26T21:25:13.520Z,55.50
2019-06-26T21:27:37.439Z,55.60
2019-06-26T21:30:09.299Z,56.10
2019-06-26T21:32:39.734Z,56.00
2019-06-26T21:35:11.177Z,56.20
2019-06-26T21:37:43.449Z,56.40
2019-06-26T21:40:15.512Z,56.90
2019-06-26T21:42:45.939Z,56.90
2019-06-26T21:45:20.152Z,57.00
2019-06-26T21:47:50.888Z,56.90
2019-06-26T21:50:21.420Z,57.30
2019-06-26T21:52:51.855Z,57.20
2019-06-26T21:55:33.695Z,57.20
2019-06-26T21:58:13.798Z,57.30
2019-06-26T22:01:03.786Z,58.20
2019-06-26T22:03:53.461Z,57.70
2019-06-26T22:06:29.629Z,57.60
2019-06-26T22:09:28.922Z,57.70
2019-06-26T22:12:07.630Z,57.70
2019-06-26T22:14:34.669Z,57.40
2019-06-26T22:17:06.783Z,57.20
2019-06-26T22:19:47.526Z,57.50
2019-06-26T22:22:17.956Z,57.60
2019-06-26T22:24:51.350Z,57.60
2019-06-26T22:27:25.054Z,57.70
2019-06-26T22:29:58.041Z,57.80
2019-06-26T22:32:30.026Z,57.70
2019-06-26T22:35:01.929Z,57.70
2019-06-26T22:37:33.930Z,57.80
2019-06-26T22:40:06.000Z,57.70
2019-06-26T22:42:36.625Z,57.80
2019-06-26T22:45:08.587Z,57.60
2019-06-26T22:47:39.016Z,58.00
2019-06-26T22:50:15.695Z,57.90
2019-06-26T22:52:46.116Z,58.00
2019-06-26T22:55:17.566Z,58.20
2019-06-26T22:57:49.120Z,58.00
2019-06-26T23:00:20.876Z,57.90
2019-06-26T23:02:51.304Z,57.70
2019-06-26T23:05:22.959Z,57.30
2019-06-26T23:07:53.495Z,57.60
2019-06-26T23:10:24.223Z,57.60
2019-06-26T23:12:54.754Z,57.70
2019-06-26T23:15:25.178Z,57.60
2019-06-26T23:17:58.472Z,57.30
2019-06-26T23:20:28.903Z,57.40
2019-06-26T23:22:59.430Z,57.10
2019-06-26T23:25:30.779Z,57.30
2019-06-26T23:28:01.410Z,57.30
2019-06-26T23:30:32.659Z,57.20
2019-06-26T23:33:03.083Z,57.00
2019-06-26T23:35:33.920Z,57.00
2019-06-26T23:38:04.763Z,57.10
2019-06-26T23:40:35.284Z,57.00
2019-06-26T23:43:17.283Z,56.80
2019-06-26T23:45:47.715Z,56.80
2019-06-26T23:48:18.138Z,57.10
2019-06-26T23:50:48.564Z,57.00
2019-06-26T23:53:19.403Z,57.00
2019-06-26T23:55:49.827Z,56.90
2019-06-26T23:58:20.254Z,57.30
